Airfield :
LOGIN :

Register | Disclaimer

   EN    FR    IT 

 










Legend :    VFR   Marginal VFR   IFR   Intensive IFR   Very Intensive IFR
Visi :
Ceiling :
>= 8 km
>= 3000ft
5 to 8 km
1000 to 3000 ft
1500m to 5 km
500 to 1000 ft
800 to 1500m
200 to 500 ft
< 800m
< 200 ft
Symbols :   Thunderstorms  Fog  Heavy snow  Heavy precipitations  Wind > 20 kt
SIGMETs :     Misc.  Thunderstorms  Icing  Turbulence  Mountain Waves  Volcanic Ashes







- Airport Elevation : 505 ft
- IATA code : SXB
- Download approach charts


LFST - Strasbourg

CURRENT METAR :
  • 210100Z AUTO VRB02KT 9999 SCT040 BKN060 BKN150 11/10 Q1017 NOSIG

EXPIRED METARs :
  • 210030Z AUTO 14002KT 9999 BKN041 BKN052 BKN066 11/10 Q1017 NOSIG
  • 210000Z AUTO 00000KT 9999 FEW042 SCT056 BKN066 11/10 Q1017 NOSIG
  • 202330Z AUTO VRB01KT 9999 FEW041 BKN066 OVC190 12/10 Q1017 NOSIG
  • 202300Z AUTO 00000KT 9999 FEW041 BKN068 OVC190 12/11 Q1017 NOSIG
  • 202230Z AUTO 18001KT CAVOK 12/11 Q1016 NOSIG

TAF TAF LFST
Valid from the 21 at 00:00 until the 22 at 00:00 UTC


202300Z 2100/2124 18004KT 9999 BKN040
BECMG 2105/2107 19010KT
TEMPO 2110/2121 -RA
PROB40
TEMPO 2112/2118 27012G22KT 5000 RA
No reported NOTAMs for that airfield.



MET'MAP, your aeronautical weather chart ! - Copyright ORBIFLY December 2007 - Disclaimer

ORBIFLY MET'MAP TEAM :

Programming & Development : Alexandra Zaïnal
Concept & Development : Baudouin d'Aumeries
Co-Development & Prog : Marc-Olivier Méhu
Technical & hardware support : Manuel Goepfert

Contact : metmap@orbifly.com




SOURCES & CREDITS :

   NOAA